sensor_id;sensor_type;location;lat;lon;timestamp;pressure;altitude;pressure_sealevel;temperature;humidity
29825;BME280;16713;52.916;12.834;2022-08-21T00:00:12;101003.75;;;18.49;79.67
29825;BME280;16713;52.916;12.834;2022-08-21T00:02:50;101002.56;;;18.53;79.24
29825;BME280;16713;52.916;12.834;2022-08-21T00:05:18;101002.59;;;18.50;78.38
29825;BME280;16713;52.916;12.834;2022-08-21T00:07:44;100999.41;;;18.55;78.66
29825;BME280;16713;52.916;12.834;2022-08-21T00:10:11;100997.78;;;18.57;78.35
29825;BME280;16713;52.916;12.834;2022-08-21T00:12:37;100995.81;;;18.61;78.37
29825;BME280;16713;52.916;12.834;2022-08-21T00:15:05;100994.19;;;18.60;78.76
29825;BME280;16713;52.916;12.834;2022-08-21T00:17:33;101005.31;;;18.57;78.11
29825;BME280;16713;52.916;12.834;2022-08-21T00:20:00;101004.97;;;18.44;77.39
29825;BME280;16713;52.916;12.834;2022-08-21T00:22:26;101006.13;;;18.54;77.17
29825;BME280;16713;52.916;12.834;2022-08-21T00:24:53;101007.72;;;18.51;76.14
29825;BME280;16713;52.916;12.834;2022-08-21T00:27:19;101008.53;;;18.52;77.70
29825;BME280;16713;52.916;12.834;2022-08-21T00:29:45;101010.13;;;18.42;76.62
29825;BME280;16713;52.916;12.834;2022-08-21T00:32:12;101008.97;;;18.33;76.63
29825;BME280;16713;52.916;12.834;2022-08-21T00:34:39;101014.09;;;18.41;77.58
29825;BME280;16713;52.916;12.834;2022-08-21T00:37:05;101010.19;;;18.21;78.00
29825;BME280;16713;52.916;12.834;2022-08-21T00:39:34;101012.13;;;18.31;76.91
29825;BME280;16713;52.916;12.834;2022-08-21T00:42:00;101017.72;;;18.21;77.66
29825;BME280;16713;52.916;12.834;2022-08-21T00:44:26;101021.28;;;18.14;77.46
29825;BME280;16713;52.916;12.834;2022-08-21T00:46:53;101025.28;;;18.13;78.17
29825;BME280;16713;52.916;12.834;2022-08-21T00:49:19;101016.91;;;18.24;77.39
29825;BME280;16713;52.916;12.834;2022-08-21T00:51:50;101009.78;;;18.12;78.28
29825;BME280;16713;52.916;12.834;2022-08-21T00:54:18;101015.34;;;18.12;78.47
29825;BME280;16713;52.916;12.834;2022-08-21T00:56:46;101008.22;;;18.08;77.68
29825;BME280;16713;52.916;12.834;2022-08-21T00:59:14;101009.00;;;18.01;78.03
29825;BME280;16713;52.916;12.834;2022-08-21T01:01:42;101012.53;;;17.91;78.81
29825;BME280;16713;52.916;12.834;2022-08-21T01:04:08;101018.13;;;18.02;78.85
29825;BME280;16713;52.916;12.834;2022-08-21T01:06:34;101009.00;;;17.87;78.29
29825;BME280;16713;52.916;12.834;2022-08-21T01:09:01;101006.59;;;17.75;77.59
29825;BME280;16713;52.916;12.834;2022-08-21T01:11:28;101002.63;;;17.62;77.82
29825;BME280;16713;52.916;12.834;2022-08-21T01:13:54;101005.41;;;17.66;77.84
29825;BME280;16713;52.916;12.834;2022-08-21T01:16:21;101000.69;;;17.73;77.65
29825;BME280;16713;52.916;12.834;2022-08-21T01:18:48;101002.25;;;17.60;76.66
29825;BME280;16713;52.916;12.834;2022-08-21T01:21:19;101007.00;;;17.70;77.14
29825;BME280;16713;52.916;12.834;2022-08-21T01:23:47;101004.63;;;17.62;77.23
29825;BME280;16713;52.916;12.834;2022-08-21T01:26:15;101007.81;;;17.64;76.52
29825;BME280;16713;52.916;12.834;2022-08-21T01:28:46;101004.59;;;17.69;76.54
29825;BME280;16713;52.916;12.834;2022-08-21T01:31:15;101006.19;;;17.63;76.77
29825;BME280;16713;52.916;12.834;2022-08-21T01:33:51;101009.78;;;17.81;76.75
29825;BME280;16713;52.916;12.834;2022-08-21T01:36:18;101009.38;;;17.79;76.34
29825;BME280;16713;52.916;12.834;2022-08-21T01:38:44;101000.66;;;17.77;74.97
29825;BME280;16713;52.916;12.834;2022-08-21T01:41:10;101005.41;;;17.87;75.72
29825;BME280;16713;52.916;12.834;2022-08-21T01:43:37;101000.25;;;17.85;75.67
29825;BME280;16713;52.916;12.834;2022-08-21T01:46:05;101001.44;;;17.77;75.22
29825;BME280;16713;52.916;12.834;2022-08-21T01:48:31;101008.19;;;17.83;75.29
29825;BME280;16713;52.916;12.834;2022-08-21T01:50:58;100998.69;;;17.84;75.17
29825;BME280;16713;52.916;12.834;2022-08-21T01:53:24;101002.25;;;17.78;74.58
29825;BME280;16713;52.916;12.834;2022-08-21T01:55:58;100998.69;;;17.81;75.35
29825;BME280;16713;52.916;12.834;2022-08-21T01:58:24;101009.00;;;17.73;75.37
29825;BME280;16713;52.916;12.834;2022-08-21T02:00:50;101008.59;;;17.57;74.33
29825;BME280;16713;52.916;12.834;2022-08-21T02:03:17;101013.75;;;17.69;74.68
29825;BME280;16713;52.916;12.834;2022-08-21T02:06:00;101010.56;;;17.60;73.77
29825;BME280;16713;52.916;12.834;2022-08-21T02:08:27;101013.72;;;17.41;73.12
29825;BME280;16713;52.916;12.834;2022-08-21T02:10:54;101015.31;;;17.60;73.55
29825;BME280;16713;52.916;12.834;2022-08-21T02:13:20;101002.63;;;17.37;73.54
29825;BME280;16713;52.916;12.834;2022-08-21T02:15:47;101017.66;;;17.36;73.33
29825;BME280;16713;52.916;12.834;2022-08-21T02:18:13;101011.72;;;17.34;74.17
29825;BME280;16713;52.916;12.834;2022-08-21T02:20:41;101013.28;;;17.32;73.40
29825;BME280;16713;52.916;12.834;2022-08-21T02:23:08;101012.88;;;17.30;74.13
29825;BME280;16713;52.916;12.834;2022-08-21T02:25:35;101017.25;;;17.41;73.86
29825;BME280;16713;52.916;12.834;2022-08-21T02:28:03;101020.00;;;17.24;74.55
29825;BME280;16713;52.916;12.834;2022-08-21T02:30:31;101020.81;;;17.24;73.70
29825;BME280;16713;52.916;12.834;2022-08-21T02:32:58;101020.41;;;17.36;73.76
29825;BME280;16713;52.916;12.834;2022-08-21T02:35:24;101028.34;;;17.34;74.56
29825;BME280;16713;52.916;12.834;2022-08-21T02:37:53;101021.22;;;17.37;74.35
29825;BME280;16713;52.916;12.834;2022-08-21T02:40:22;101030.75;;;17.36;73.73
29825;BME280;16713;52.916;12.834;2022-08-21T02:42:49;101026.34;;;17.21;74.42
29825;BME280;16713;52.916;12.834;2022-08-21T02:45:15;101023.19;;;17.26;74.60
29825;BME280;16713;52.916;12.834;2022-08-21T02:47:49;101025.56;;;17.31;74.02
29825;BME280;16713;52.916;12.834;2022-08-21T02:50:24;101028.75;;;17.33;74.08
29825;BME280;16713;52.916;12.834;2022-08-21T02:52:52;101022.78;;;17.17;74.79
29825;BME280;16713;52.916;12.834;2022-08-21T02:55:20;101026.72;;;17.19;74.77
29825;BME280;16713;52.916;12.834;2022-08-21T02:57:47;101021.13;;;17.09;74.99
29825;BME280;16713;52.916;12.834;2022-08-21T03:00:14;101018.31;;;17.02;74.56
29825;BME280;16713;52.916;12.834;2022-08-21T03:02:41;101021.81;;;16.88;75.17
29825;BME280;16713;52.916;12.834;2022-08-21T03:05:09;101020.31;;;17.05;75.56
29825;BME280;16713;52.916;12.834;2022-08-21T03:07:36;101024.66;;;17.06;74.94
29825;BME280;16713;52.916;12.834;2022-08-21T03:10:03;101020.28;;;16.94;75.60
29825;BME280;16713;52.916;12.834;2022-08-21T03:12:29;101017.91;;;17.00;75.29
29825;BME280;16713;52.916;12.834;2022-08-21T03:14:56;101021.53;;;17.07;75.35
29825;BME280;16713;52.916;12.834;2022-08-21T03:17:24;101023.53;;;17.17;75.22
29825;BME280;16713;52.916;12.834;2022-08-21T03:19:55;101023.16;;;17.19;74.97
29825;BME280;16713;52.916;12.834;2022-08-21T03:22:21;101016.44;;;17.20;74.44
29825;BME280;16713;52.916;12.834;2022-08-21T03:24:47;101029.88;;;17.18;74.41
29825;BME280;16713;52.916;12.834;2022-08-21T03:27:14;101031.06;;;17.20;75.11
29825;BME280;16713;52.916;12.834;2022-08-21T03:29:41;101027.84;;;17.11;74.45
29825;BME280;16713;52.916;12.834;2022-08-21T03:32:07;101033.41;;;17.11;74.85
29825;BME280;16713;52.916;12.834;2022-08-21T03:34:37;101031.75;;;16.96;74.31
29825;BME280;16713;52.916;12.834;2022-08-21T03:37:04;101030.59;;;16.97;74.61
29825;BME280;16713;52.916;12.834;2022-08-21T03:39:31;101033.75;;;17.03;75.12
29825;BME280;16713;52.916;12.834;2022-08-21T03:41:57;101036.16;;;17.11;74.30
29825;BME280;16713;52.916;12.834;2022-08-21T03:44:26;101025.06;;;17.01;74.18
29825;BME280;16713;52.916;12.834;2022-08-21T03:46:55;101029.81;;;17.00;74.42
29825;BME280;16713;52.916;12.834;2022-08-21T03:49:21;101032.97;;;17.02;74.38
29825;BME280;16713;52.916;12.834;2022-08-21T03:51:48;101035.72;;;16.99;74.51
29825;BME280;16713;52.916;12.834;2022-08-21T03:54:24;101028.19;;;16.92;74.28
29825;BME280;16713;52.916;12.834;2022-08-21T03:56:53;101033.75;;;16.96;74.64
29825;BME280;16713;52.916;12.834;2022-08-21T03:59:20;101027.81;;;16.97;74.64
29825;BME280;16713;52.916;12.834;2022-08-21T04:04:19;101022.53;;;16.71;74.78
29825;BME280;16713;52.916;12.834;2022-08-21T04:06:45;101023.38;;;16.82;75.79
29825;BME280;16713;52.916;12.834;2022-08-21T04:09:12;101030.94;;;16.89;74.96
29825;BME280;16713;52.916;12.834;2022-08-21T04:11:38;101028.88;;;16.72;75.10
29825;BME280;16713;52.916;12.834;2022-08-21T04:14:04;101031.28;;;16.77;75.19
29825;BME280;16713;52.916;12.834;2022-08-21T04:16:31;101029.63;;;16.62;75.93
29825;BME280;16713;52.916;12.834;2022-08-21T04:18:57;101028.53;;;16.77;74.95
29825;BME280;16713;52.916;12.834;2022-08-21T04:21:23;101027.59;;;16.52;75.66
29825;BME280;16713;52.916;12.834;2022-08-21T04:23:50;101028.28;;;16.35;75.97
29825;BME280;16713;52.916;12.834;2022-08-21T04:26:16;101022.00;;;16.48;75.78
29825;BME280;16713;52.916;12.834;2022-08-21T04:28:43;101025.94;;;16.44;75.87
29825;BME280;16713;52.916;12.834;2022-08-21T04:31:09;101020.78;;;16.35;76.42
29825;BME280;16713;52.916;12.834;2022-08-21T04:33:36;101018.84;;;16.43;76.11
29825;BME280;16713;52.916;12.834;2022-08-21T04:36:02;101017.53;;;16.30;75.96
29825;BME280;16713;52.916;12.834;2022-08-21T04:38:29;101023.88;;;16.34;75.80
29825;BME280;16713;52.916;12.834;2022-08-21T04:41:01;101032.34;;;16.51;75.76
29825;BME280;16713;52.916;12.834;2022-08-21T04:43:28;101027.09;;;16.36;75.81
29825;BME280;16713;52.916;12.834;2022-08-21T04:45:54;101024.00;;;16.48;76.49
29825;BME280;16713;52.916;12.834;2022-08-21T04:48:21;101023.09;;;16.33;76.13
29825;BME280;16713;52.916;12.834;2022-08-21T04:50:57;101029.31;;;16.20;76.40
29825;BME280;16713;52.916;12.834;2022-08-21T04:53:30;101036.59;;;16.35;76.24
29825;BME280;16713;52.916;12.834;2022-08-21T04:55:59;101036.13;;;16.33;75.78
29825;BME280;16713;52.916;12.834;2022-08-21T04:58:27;101033.25;;;16.15;76.03
29825;BME280;16713;52.916;12.834;2022-08-21T05:00:55;101035.72;;;16.27;76.92
29825;BME280;16713;52.916;12.834;2022-08-21T05:03:22;101035.88;;;16.52;75.71
29825;BME280;16713;52.916;12.834;2022-08-21T05:05:49;101034.72;;;16.53;75.64
29825;BME280;16713;52.916;12.834;2022-08-21T05:08:16;101030.72;;;16.47;75.02
29825;BME280;16713;52.916;12.834;2022-08-21T05:10:44;101036.69;;;16.52;75.42
29825;BME280;16713;52.916;12.834;2022-08-21T05:13:11;101033.56;;;16.57;75.98
29825;BME280;16713;52.916;12.834;2022-08-21T05:15:39;101037.97;;;16.69;74.82
29825;BME280;16713;52.916;12.834;2022-08-21T05:18:05;101029.66;;;16.65;75.19
29825;BME280;16713;52.916;12.834;2022-08-21T05:20:32;101039.63;;;16.87;75.05
29825;BME280;16713;52.916;12.834;2022-08-21T05:23:00;101036.03;;;16.76;74.67
29825;BME280;16713;52.916;12.834;2022-08-21T05:25:27;101038.38;;;16.71;74.63
29825;BME280;16713;52.916;12.834;2022-08-21T05:27:55;101043.94;;;16.74;74.32
29825;BME280;16713;52.916;12.834;2022-08-21T05:30:25;101046.75;;;16.88;74.19
29825;BME280;16713;52.916;12.834;2022-08-21T05:32:59;101044.75;;;16.82;74.38
29825;BME280;16713;52.916;12.834;2022-08-21T05:35:26;101043.63;;;16.93;74.01
29825;BME280;16713;52.916;12.834;2022-08-21T05:37:53;101051.16;;;16.96;74.33
29825;BME280;16713;52.916;12.834;2022-08-21T05:40:19;101053.41;;;16.70;74.69
29825;BME280;16713;52.916;12.834;2022-08-21T05:42:49;101060.59;;;16.81;73.61
29825;BME280;16713;52.916;12.834;2022-08-21T05:45:23;101059.38;;;16.72;74.52
29825;BME280;16713;52.916;12.834;2022-08-21T05:48:08;101057.75;;;16.71;75.03
29825;BME280;16713;52.916;12.834;2022-08-21T05:50:35;101053.34;;;16.63;74.88
29825;BME280;16713;52.916;12.834;2022-08-21T05:53:02;101057.34;;;16.65;75.33
29825;BME280;16713;52.916;12.834;2022-08-21T05:55:32;101060.13;;;16.65;75.66
29825;BME280;16713;52.916;12.834;2022-08-21T05:57:59;101058.91;;;16.66;75.23
29825;BME280;16713;52.916;12.834;2022-08-21T06:00:25;101062.53;;;16.77;74.43
29825;BME280;16713;52.916;12.834;2022-08-21T06:02:52;101062.06;;;16.65;74.93
29825;BME280;16713;52.916;12.834;2022-08-21T06:05:18;101055.75;;;16.64;75.25
29825;BME280;16713;52.916;12.834;2022-08-21T06:08:02;101060.13;;;16.72;74.71
29825;BME280;16713;52.916;12.834;2022-08-21T06:10:28;101065.19;;;16.56;74.81
29825;BME280;16713;52.916;12.834;2022-08-21T06:12:55;101066.38;;;16.55;75.06
29825;BME280;16713;52.916;12.834;2022-08-21T06:15:22;101066.81;;;16.64;74.59
29825;BME280;16713;52.916;12.834;2022-08-21T06:17:48;101065.28;;;16.70;74.97
29825;BME280;16713;52.916;12.834;2022-08-21T06:20:15;101071.22;;;16.72;75.69
29825;BME280;16713;52.916;12.834;2022-08-21T06:22:41;101074.00;;;16.76;76.28
29825;BME280;16713;52.916;12.834;2022-08-21T06:25:07;101074.06;;;16.90;74.60
29825;BME280;16713;52.916;12.834;2022-08-21T06:27:35;101081.63;;;16.93;74.86
29825;BME280;16713;52.916;12.834;2022-08-21T06:30:02;101073.16;;;16.65;74.96
29825;BME280;16713;52.916;12.834;2022-08-21T06:32:28;101076.06;;;16.86;75.63
29825;BME280;16713;52.916;12.834;2022-08-21T06:34:55;101079.22;;;16.84;74.72
29825;BME280;16713;52.916;12.834;2022-08-21T06:37:21;101076.47;;;16.95;74.45
29825;BME280;16713;52.916;12.834;2022-08-21T06:39:48;101072.50;;;16.89;75.24
29825;BME280;16713;52.916;12.834;2022-08-21T06:42:15;101077.28;;;16.95;74.03
29825;BME280;16713;52.916;12.834;2022-08-21T06:44:42;101071.41;;;17.07;73.13
29825;BME280;16713;52.916;12.834;2022-08-21T06:47:09;101072.56;;;16.99;73.56
29825;BME280;16713;52.916;12.834;2022-08-21T06:49:35;101072.28;;;17.18;74.02
29825;BME280;16713;52.916;12.834;2022-08-21T06:52:03;101073.88;;;17.23;73.33
29825;BME280;16713;52.916;12.834;2022-08-21T06:54:29;101073.47;;;17.24;73.80
29825;BME280;16713;52.916;12.834;2022-08-21T06:56:56;101073.47;;;17.24;73.49
29825;BME280;16713;52.916;12.834;2022-08-21T06:59:23;101081.84;;;17.42;73.28
29825;BME280;16713;52.916;12.834;2022-08-21T07:01:49;101069.59;;;17.50;73.39
29825;BME280;16713;52.916;12.834;2022-08-21T07:04:15;101076.34;;;17.49;72.04
29825;BME280;16713;52.916;12.834;2022-08-21T07:06:42;101073.16;;;17.54;71.87
29825;BME280;16713;52.916;12.834;2022-08-21T07:09:08;101072.78;;;17.63;72.10
29825;BME280;16713;52.916;12.834;2022-08-21T07:11:35;101076.75;;;17.65;71.32
29825;BME280;16713;52.916;12.834;2022-08-21T07:14:12;101085.88;;;17.73;71.49
29825;BME280;16713;52.916;12.834;2022-08-21T07:16:45;101087.47;;;17.81;71.56
29825;BME280;16713;52.916;12.834;2022-08-21T07:19:12;101087.47;;;17.77;71.58
29825;BME280;16713;52.916;12.834;2022-08-21T07:21:38;101079.19;;;17.88;72.22
29825;BME280;16713;52.916;12.834;2022-08-21T07:24:05;101088.72;;;17.97;71.36
29825;BME280;16713;52.916;12.834;2022-08-21T07:26:31;101083.19;;;17.97;71.21
29825;BME280;16713;52.916;12.834;2022-08-21T07:28:57;101075.97;;;17.79;71.27
29825;BME280;16713;52.916;12.834;2022-08-21T07:31:24;101083.94;;;17.98;71.14
29825;BME280;16713;52.916;12.834;2022-08-21T07:33:51;101079.22;;;18.02;70.70
29825;BME280;16713;52.916;12.834;2022-08-21T07:36:17;101084.34;;;18.00;70.17
29825;BME280;16713;52.916;12.834;2022-08-21T07:38:43;101078.00;;;18.06;69.56
29825;BME280;16713;52.916;12.834;2022-08-21T07:41:15;101073.25;;;18.00;69.49
29825;BME280;16713;52.916;12.834;2022-08-21T07:43:42;101066.09;;;18.02;69.63
29825;BME280;16713;52.916;12.834;2022-08-21T07:46:11;101070.50;;;18.07;70.57
29825;BME280;16713;52.916;12.834;2022-08-21T07:48:38;101068.50;;;18.18;70.14
29825;BME280;16713;52.916;12.834;2022-08-21T07:51:07;101084.75;;;18.19;69.92
29825;BME280;16713;52.916;12.834;2022-08-21T07:53:34;101075.22;;;18.20;70.40
29825;BME280;16713;52.916;12.834;2022-08-21T07:56:02;101076.81;;;18.28;69.10
29825;BME280;16713;52.916;12.834;2022-08-21T07:58:30;101079.63;;;18.21;68.02
29825;BME280;16713;52.916;12.834;2022-08-21T08:00:58;101069.28;;;18.18;69.04
29825;BME280;16713;52.916;12.834;2022-08-21T08:03:25;101077.59;;;18.25;68.50
29825;BME280;16713;52.916;12.834;2022-08-21T08:05:55;101078.75;;;18.49;67.63
29825;BME280;16713;52.916;12.834;2022-08-21T08:08:21;101077.59;;;18.39;69.43
29825;BME280;16713;52.916;12.834;2022-08-21T08:10:48;101079.97;;;18.23;67.66
29825;BME280;16713;52.916;12.834;2022-08-21T08:13:16;101074.44;;;18.23;67.16
29825;BME280;16713;52.916;12.834;2022-08-21T08:15:42;101078.81;;;18.28;67.35
29825;BME280;16713;52.916;12.834;2022-08-21T08:18:09;101079.19;;;18.40;65.69
29825;BME280;16713;52.916;12.834;2022-08-21T08:20:35;101079.19;;;18.30;66.89
29825;BME280;16713;52.916;12.834;2022-08-21T08:23:01;101079.16;;;18.51;65.84
29825;BME280;16713;52.916;12.834;2022-08-21T08:25:28;101087.06;;;18.66;65.68
29825;BME280;16713;52.916;12.834;2022-08-21T08:28:02;101086.66;;;18.71;66.61
29825;BME280;16713;52.916;12.834;2022-08-21T08:30:41;101079.91;;;18.90;65.11
29825;BME280;16713;52.916;12.834;2022-08-21T08:33:08;101090.56;;;19.02;64.25
29825;BME280;16713;52.916;12.834;2022-08-21T08:35:35;101094.50;;;19.12;64.08
29825;BME280;16713;52.916;12.834;2022-08-21T08:38:04;101094.09;;;19.13;63.99
29825;BME280;16713;52.916;12.834;2022-08-21T08:40:43;101098.03;;;19.23;64.25
29825;BME280;16713;52.916;12.834;2022-08-21T08:43:12;101098.41;;;19.32;63.38
29825;BME280;16713;52.916;12.834;2022-08-21T08:45:40;101091.94;;;19.59;60.74
29825;BME280;16713;52.916;12.834;2022-08-21T08:48:09;101088.78;;;19.54;60.96
29825;BME280;16713;52.916;12.834;2022-08-21T08:50:55;101091.56;;;19.54;61.74
29825;BME280;16713;52.916;12.834;2022-08-21T08:53:30;101088.34;;;19.59;61.71
29825;BME280;16713;52.916;12.834;2022-08-21T08:55:58;101095.44;;;19.70;62.93
29825;BME280;16713;52.916;12.834;2022-08-21T08:58:31;101096.25;;;19.67;61.58
29825;BME280;16713;52.916;12.834;2022-08-21T09:00:58;101092.63;;;19.74;61.04
29825;BME280;16713;52.916;12.834;2022-08-21T09:03:25;101099.38;;;19.73;60.77
29825;BME280;16713;52.916;12.834;2022-08-21T09:08:32;101099.34;;;19.80;60.84
29825;BME280;16713;52.916;12.834;2022-08-21T09:16:44;101104.09;;;19.83;61.51
29825;BME280;16713;52.916;12.834;2022-08-21T09:19:23;101102.59;;;19.71;60.93
29825;BME280;16713;52.916;12.834;2022-08-21T09:24:33;101108.84;;;19.89;61.41
29825;BME280;16713;52.916;12.834;2022-08-21T09:27:07;101113.28;;;19.80;61.53
29825;BME280;16713;52.916;12.834;2022-08-21T09:29:39;101109.56;;;19.97;61.84
29825;BME280;16713;52.916;12.834;2022-08-21T09:32:10;101102.94;;;19.80;61.93
29825;BME280;16713;52.916;12.834;2022-08-21T09:34:54;101104.91;;;19.83;61.55
29825;BME280;16713;52.916;12.834;2022-08-21T09:37:21;101106.31;;;20.05;60.42
29825;BME280;16713;52.916;12.834;2022-08-21T09:39:47;101102.88;;;19.87;61.96
29825;BME280;16713;52.916;12.834;2022-08-21T09:42:20;101103.56;;;20.02;59.86
29825;BME280;16713;52.916;12.834;2022-08-21T09:44:48;101106.00;;;19.96;58.83
29825;BME280;16713;52.916;12.834;2022-08-21T09:47:18;101099.47;;;20.21;58.52
29825;BME280;16713;52.916;12.834;2022-08-21T09:49:48;101094.09;;;19.92;59.59
29825;BME280;16713;52.916;12.834;2022-08-21T09:52:18;101090.59;;;19.78;59.57
29825;BME280;16713;52.916;12.834;2022-08-21T09:54:46;101096.06;;;19.92;59.17
29825;BME280;16713;52.916;12.834;2022-08-21T09:57:14;101088.94;;;19.87;59.68
29825;BME280;16713;52.916;12.834;2022-08-21T10:02:46;101101.19;;;20.00;58.49
29825;BME280;16713;52.916;12.834;2022-08-21T10:05:21;101097.13;;;20.12;57.74
29825;BME280;16713;52.916;12.834;2022-08-21T10:07:49;101097.44;;;20.25;58.00
29825;BME280;16713;52.916;12.834;2022-08-21T10:10:23;101102.66;;;20.19;58.25
29825;BME280;16713;52.916;12.834;2022-08-21T10:13:24;101097.44;;;20.25;58.42
29825;BME280;16713;52.916;12.834;2022-08-21T10:18:29;101097.00;;;20.30;57.56
29825;BME280;16713;52.916;12.834;2022-08-21T10:23:40;101104.75;;;20.52;57.40
29825;BME280;16713;52.916;12.834;2022-08-21T10:31:36;101097.06;;;20.67;56.84
29825;BME280;16713;52.916;12.834;2022-08-21T10:36:58;101097.97;;;20.53;57.16
29825;BME280;16713;52.916;12.834;2022-08-21T10:39:26;101102.25;;;20.65;57.94
29825;BME280;16713;52.916;12.834;2022-08-21T10:47:18;101094.59;;;20.72;58.87
29825;BME280;16713;52.916;12.834;2022-08-21T10:52:42;101100.94;;;20.76;55.87
29825;BME280;16713;52.916;12.834;2022-08-21T10:55:16;101084.81;;;20.57;56.08
29825;BME280;16713;52.916;12.834;2022-08-21T10:57:46;101091.06;;;20.68;57.49
29825;BME280;16713;52.916;12.834;2022-08-21T11:00:23;101093.84;;;20.68;56.79
29825;BME280;16713;52.916;12.834;2022-08-21T11:08:02;101079.72;;;20.49;56.44
29825;BME280;16713;52.916;12.834;2022-08-21T11:10:37;101086.06;;;20.53;57.42
29825;BME280;16713;52.916;12.834;2022-08-21T11:13:19;101082.59;;;20.75;55.97
29825;BME280;16713;52.916;12.834;2022-08-21T11:16:03;101085.13;;;20.63;56.23
29825;BME280;16713;52.916;12.834;2022-08-21T11:18:39;101090.03;;;20.52;56.32
29825;BME280;16713;52.916;12.834;2022-08-21T11:23:57;101086.84;;;20.50;56.45
29825;BME280;16713;52.916;12.834;2022-08-21T11:29:05;101079.97;;;20.21;56.21
29825;BME280;16713;52.916;12.834;2022-08-21T11:34:18;101077.97;;;20.21;56.03
29825;BME280;16713;52.916;12.834;2022-08-21T11:37:00;101085.34;;;20.42;54.61
29825;BME280;16713;52.916;12.834;2022-08-21T11:42:19;101079.88;;;20.31;55.90
29825;BME280;16713;52.916;12.834;2022-08-21T11:50:21;101090.81;;;20.52;56.37
29825;BME280;16713;52.916;12.834;2022-08-21T12:00:54;101085.06;;;20.70;55.53
29825;BME280;16713;52.916;12.834;2022-08-21T12:03:27;101091.38;;;20.74;55.37
29825;BME280;16713;52.916;12.834;2022-08-21T12:06:02;101087.03;;;20.73;54.35
29825;BME280;16713;52.916;12.834;2022-08-21T12:11:04;101079.00;;;20.78;53.85
29825;BME280;16713;52.916;12.834;2022-08-21T12:13:33;101086.47;;;20.88;54.38
29825;BME280;16713;52.916;12.834;2022-08-21T12:16:14;101088.72;;;21.00;54.81
29825;BME280;16713;52.916;12.834;2022-08-21T12:18:42;101084.03;;;20.94;54.73
29825;BME280;16713;52.916;12.834;2022-08-21T12:21:27;101077.63;;;20.97;54.39
29825;BME280;16713;52.916;12.834;2022-08-21T12:26:34;101080.69;;;21.06;54.48
29825;BME280;16713;52.916;12.834;2022-08-21T12:29:04;101076.81;;;20.96;54.32
29825;BME280;16713;52.916;12.834;2022-08-21T12:31:31;101080.91;;;20.88;54.76
29825;BME280;16713;52.916;12.834;2022-08-21T12:33:58;101083.13;;;21.04;55.44
29825;BME280;16713;52.916;12.834;2022-08-21T12:36:40;101072.94;;;20.87;54.89
29825;BME280;16713;52.916;12.834;2022-08-21T12:39:13;101066.63;;;20.79;55.71
29825;BME280;16713;52.916;12.834;2022-08-21T12:41:51;101061.09;;;20.76;55.39
29825;BME280;16713;52.916;12.834;2022-08-21T12:44:33;101066.41;;;21.00;55.73
29825;BME280;16713;52.916;12.834;2022-08-21T12:47:03;101062.16;;;20.89;55.63
29825;BME280;16713;52.916;12.834;2022-08-21T12:49:31;101058.66;;;20.81;55.08
29825;BME280;16713;52.916;12.834;2022-08-21T12:52:12;101058.69;;;20.78;55.30
29825;BME280;16713;52.916;12.834;2022-08-21T12:54:43;101052.03;;;20.68;55.31
29825;BME280;16713;52.916;12.834;2022-08-21T12:57:23;101061.78;;;20.87;56.01
29825;BME280;16713;52.916;12.834;2022-08-21T12:59:54;101068.72;;;21.09;55.01
29825;BME280;16713;52.916;12.834;2022-08-21T13:02:43;101056.19;;;20.90;55.40
29825;BME280;16713;52.916;12.834;2022-08-21T13:05:12;101059.34;;;20.92;56.51
29825;BME280;16713;52.916;12.834;2022-08-21T13:07:42;101055.09;;;20.77;56.57
29825;BME280;16713;52.916;12.834;2022-08-21T13:10:23;101046.06;;;20.66;56.84
29825;BME280;16713;52.916;12.834;2022-08-21T13:12:51;101050.13;;;20.58;56.72
29825;BME280;16713;52.916;12.834;2022-08-21T13:15:29;101055.72;;;20.58;56.68
29825;BME280;16713;52.916;12.834;2022-08-21T13:17:59;101049.16;;;20.38;57.72
29825;BME280;16713;52.916;12.834;2022-08-21T13:20:30;101053.47;;;20.46;58.74
29825;BME280;16713;52.916;12.834;2022-08-21T13:22:56;101049.50;;;20.44;57.82
29825;BME280;16713;52.916;12.834;2022-08-21T13:25:26;101050.06;;;20.65;58.24
29825;BME280;16713;52.916;12.834;2022-08-21T13:27:57;101047.25;;;20.69;57.11
29825;BME280;16713;52.916;12.834;2022-08-21T13:30:23;101050.28;;;20.81;57.78
29825;BME280;16713;52.916;12.834;2022-08-21T13:32:51;101044.69;;;20.85;57.52
29825;BME280;16713;52.916;12.834;2022-08-21T13:35:19;101044.28;;;20.83;57.53
29825;BME280;16713;52.916;12.834;2022-08-21T13:37:47;101046.59;;;20.91;56.98
29825;BME280;16713;52.916;12.834;2022-08-21T13:40:15;101048.22;;;20.85;56.97
29825;BME280;16713;52.916;12.834;2022-08-21T13:42:43;101049.81;;;20.90;57.79
29825;BME280;16713;52.916;12.834;2022-08-21T13:45:12;101043.47;;;20.86;57.88
29825;BME280;16713;52.916;12.834;2022-08-21T13:47:38;101051.44;;;20.84;58.87
29825;BME280;16713;52.916;12.834;2022-08-21T13:50:05;101053.41;;;20.87;60.08
29825;BME280;16713;52.916;12.834;2022-08-21T13:52:33;101047.38;;;20.92;58.67
29825;BME280;16713;52.916;12.834;2022-08-21T13:55:12;101034.25;;;20.92;56.91
29825;BME280;16713;52.916;12.834;2022-08-21T13:57:39;101035.09;;;20.89;59.21
29825;BME280;16713;52.916;12.834;2022-08-21T14:00:11;101029.81;;;20.95;57.82
29825;BME280;16713;52.916;12.834;2022-08-21T14:02:39;101037.00;;;20.96;57.73